Bridgeport, California
Current Conditions -  °F | °C
As of 10:55 AM on Saturday 25 Oct 2014 (Local Time) from KMMH Reporting Station
Clear Clear  
Wind Chill: 59°   Ceiling: Unl
Heat Index: 59°   Visibility: 10mi
Dew Point:   Wind: 21mph
Humidity: 14%   Direction: 220°SW
Pressure: 30.13"   Gusts: 39mph
Location:  38.26°N, 119.23°W
Report Text: KMMH 251755Z AUTO 22018G34KT 10SM CLR 15/M13 A3013 RMK AO1
Loading
Personal Weather Stations






























Interactive Weather Map
Tropical Storm Tracking
New forecast layout! Learn more

10-Day Weather Forecast

Advertisements
Track Severe Weather on mobile